Time;durP1;ratioP1;P1;durP2;ratioP2;P2;SDS_P1;SDS_P2;PMS_P1;PMS_P2;Temp;Humidity;BMP_temperature;BMP_pressure;BME280_temperature;BME280_humidity;BME280_pressure;Samples;Min_cycle;Max_cycle;Signal;HPM_P1;HPM_P2
2024/01/04 00:01:03;;;;;;;3.55;2.08;;;26.90;99.90;;;;;;5085691;28;20306;-81
2024/01/04 00:03:34;;;;;;;3.78;2.05;;;26.90;99.90;;;;;;5081032;28;20222;-81
2024/01/04 00:06:10;;;;;;;3.78;2.30;;;26.90;99.90;;;;;;5094063;28;20214;-81
2024/01/04 00:08:41;;;;;;;8.68;2.38;;;26.90;99.90;;;;;;5093267;28;20314;-81
2024/01/04 00:11:15;;;;;;;4.40;2.10;;;26.90;99.90;;;;;;5089518;28;20262;-81
2024/01/04 00:13:46;;;;;;;3.80;2.20;;;27.00;99.90;;;;;;5090197;28;20195;-82
2024/01/04 00:16:16;;;;;;;6.28;2.40;;;27.10;99.90;;;;;;5093419;28;20221;-82
2024/01/04 00:18:47;;;;;;;5.45;2.33;;;27.30;99.90;;;;;;5102729;28;20236;-83
2024/01/04 00:21:20;;;;;;;4.90;2.17;;;27.30;99.90;;;;;;5102809;28;20187;-83
2024/01/04 00:23:51;;;;;;;4.05;2.22;;;27.30;99.90;;;;;;5106310;28;20198;-82
2024/01/04 00:26:22;;;;;;;5.88;2.42;;;27.30;99.90;;;;;;5108487;28;20273;-83
2024/01/04 00:28:52;;;;;;;6.03;2.72;;;27.40;99.90;;;;;;5110675;28;20194;-83
2024/01/04 00:31:24;;;;;;;8.38;2.80;;;27.50;99.90;;;;;;5099573;28;20195;-84
2024/01/04 00:33:55;;;;;;;5.57;2.50;;;27.60;99.90;;;;;;5101540;28;20676;-81
2024/01/04 00:36:27;;;;;;;6.47;2.67;;;27.60;99.90;;;;;;5101569;28;20213;-82
2024/01/04 00:38:58;;;;;;;9.05;2.97;;;27.50;99.90;;;;;;5100475;28;20817;-82
2024/01/04 00:41:29;;;;;;;6.07;2.90;;;27.40;99.90;;;;;;5107866;28;20224;-82
2024/01/04 00:44:00;;;;;;;10.88;3.00;;;27.30;99.90;;;;;;5099207;28;20242;-80
2024/01/04 00:46:30;;;;;;;8.13;3.10;;;27.30;99.90;;;;;;5096435;28;20199;-81
2024/01/04 00:49:01;;;;;;;8.32;3.35;;;27.20;99.90;;;;;;5100364;28;20764;-82
2024/01/04 00:51:34;;;;;;;8.65;3.13;;;27.10;99.90;;;;;;5107391;28;20588;-83
2024/01/04 00:54:05;;;;;;;12.50;3.50;;;27.10;99.90;;;;;;5100393;28;20202;-82
2024/01/04 00:56:36;;;;;;;10.95;3.70;;;27.20;99.90;;;;;;5102536;28;20194;-82
2024/01/04 00:59:07;;;;;;;9.55;3.15;;;27.10;99.90;;;;;;5103073;28;20239;-81
2024/01/04 01:01:38;;;;;;;9.23;3.47;;;27.10;99.90;;;;;;5105976;28;20587;-81
2024/01/04 01:04:10;;;;;;;9.07;3.45;;;27.10;99.90;;;;;;5108629;28;20747;-81
2024/01/04 01:06:42;;;;;;;11.20;3.38;;;27.20;99.90;;;;;;5104524;28;20210;-81
2024/01/04 01:09:13;;;;;;;12.80;3.42;;;27.10;99.90;;;;;;5101491;28;20212;-80
2024/01/04 01:11:44;;;;;;;10.63;3.55;;;27.20;99.90;;;;;;5113902;28;20202;-81
2024/01/04 01:14:15;;;;;;;10.05;3.42;;;27.10;99.90;;;;;;5109235;28;20193;-83
2024/01/04 01:16:46;;;;;;;11.00;3.38;;;27.00;99.90;;;;;;5120199;27;20218;-81
2024/01/04 01:19:17;;;;;;;9.52;3.60;;;26.90;99.90;;;;;;5120795;28;20287;-82
2024/01/04 01:21:49;;;;;;;13.13;3.65;;;26.80;99.90;;;;;;5100253;27;20716;-81
2024/01/04 01:24:23;;;;;;;8.18;3.53;;;26.80;99.90;;;;;;5104443;28;20217;-81
2024/01/04 01:26:54;;;;;;;18.25;3.90;;;26.90;99.90;;;;;;5112490;28;20190;-82
2024/01/04 01:29:25;;;;;;;10.15;3.58;;;27.00;99.90;;;;;;5110476;28;20648;-80
2024/01/04 01:31:56;;;;;;;6.82;3.03;;;27.00;99.90;;;;;;5107622;28;20301;-81
2024/01/04 01:34:26;;;;;;;14.75;3.53;;;27.10;99.90;;;;;;5104551;28;20220;-80
2024/01/04 01:36:59;;;;;;;7.63;3.03;;;27.00;99.90;;;;;;5111826;28;20246;-81
2024/01/04 01:39:30;;;;;;;11.75;3.80;;;27.00;99.90;;;;;;5097897;28;20219;-82
2024/01/04 01:42:01;;;;;;;11.32;4.03;;;27.10;99.90;;;;;;5110594;28;20214;-83
2024/01/04 01:44:32;;;;;;;11.55;3.78;;;27.00;99.90;;;;;;5119129;27;20191;-80
2024/01/04 01:47:02;;;;;;;10.63;3.70;;;27.10;99.90;;;;;;5104644;27;20701;-81
2024/01/04 01:49:34;;;;;;;17.20;5.63;;;27.00;99.90;;;;;;5104196;28;20591;-82
2024/01/04 01:52:07;;;;;;;11.32;3.70;;;26.90;99.90;;;;;;5111456;28;20214;-82
2024/01/04 01:54:39;;;;;;;8.38;2.95;;;26.90;99.90;;;;;;5111625;28;20190;-82
2024/01/04 01:57:10;;;;;;;10.48;3.50;;;26.80;99.90;;;;;;5095912;28;20228;-82
2024/01/04 01:59:41;;;;;;;11.73;3.47;;;26.70;99.90;;;;;;5111502;28;20261;-82
2024/01/04 02:02:12;;;;;;;10.43;3.08;;;26.60;99.90;;;;;;5107987;27;20439;-82
2024/01/04 02:04:43;;;;;;;9.02;3.53;;;26.50;99.90;;;;;;5100793;28;20542;-82
2024/01/04 02:07:16;;;;;;;8.45;3.30;;;26.40;99.90;;;;;;5112128;28;20203;-83
2024/01/04 02:09:47;;;;;;;9.63;3.60;;;26.30;99.90;;;;;;5115407;27;20201;-82
2024/01/04 02:12:18;;;;;;;10.35;3.80;;;26.30;99.90;;;;;;5110786;27;20564;-81
2024/01/04 02:14:54;;;;;;;10.82;4.00;;;26.20;99.90;;;;;;5111424;27;20535;-81
2024/01/04 02:17:25;;;;;;;10.32;3.70;;;26.20;99.90;;;;;;5098852;28;20214;-77
2024/01/04 02:19:56;;;;;;;7.55;3.28;;;26.10;99.90;;;;;;5108763;28;20330;-81
2024/01/04 02:22:30;;;;;;;15.18;4.22;;;26.00;99.90;;;;;;5111010;28;20426;-82
2024/01/04 02:25:02;;;;;;;14.10;3.88;;;25.90;99.90;;;;;;5108061;28;20213;-83
2024/01/04 02:27:33;;;;;;;10.20;3.78;;;25.80;99.90;;;;;;5091788;28;20231;-84
2024/01/04 02:30:04;;;;;;;11.43;4.07;;;25.80;99.90;;;;;;5102582;27;20738;-83
2024/01/04 02:32:35;;;;;;;7.60;3.80;;;25.70;99.90;;;;;;5111696;28;20210;-83
2024/01/04 02:35:06;;;;;;;8.77;3.90;;;25.60;99.90;;;;;;5106002;28;20580;-83
2024/01/04 02:37:37;;;;;;;7.47;3.70;;;25.60;99.90;;;;;;5109780;28;20199;-83
2024/01/04 02:40:12;;;;;;;9.57;4.40;;;25.50;99.90;;;;;;5092271;28;20223;-83
2024/01/04 02:42:42;;;;;;;10.95;4.68;;;25.50;99.90;;;;;;5110185;28;20299;-83
2024/01/04 02:45:13;;;;;;;11.95;3.80;;;25.50;99.90;;;;;;5112885;28;20194;-84
2024/01/04 02:47:44;;;;;;;7.30;3.85;;;25.40;99.90;;;;;;5114422;28;20199;-84
2024/01/04 02:50:16;;;;;;;10.55;3.92;;;25.40;99.90;;;;;;5093221;28;20538;-85
2024/01/04 02:52:50;;;;;;;10.90;4.25;;;25.40;99.90;;;;;;5100667;28;20214;-85
2024/01/04 02:55:23;;;;;;;9.38;4.20;;;25.40;99.90;;;;;;5114245;27;20205;-84
2024/01/04 02:57:54;;;;;;;9.38;4.13;;;25.30;99.90;;;;;;5112605;28;20203;-84
2024/01/04 03:00:27;;;;;;;9.60;3.92;;;25.30;99.90;;;;;;5100060;28;20201;-83
2024/01/04 03:02:58;;;;;;;11.05;4.47;;;25.30;99.90;;;;;;5106730;28;20223;-84
2024/01/04 03:05:29;;;;;;;10.55;4.07;;;25.20;99.90;;;;;;5113441;28;20232;-84
2024/01/04 03:08:01;;;;;;;11.20;4.20;;;25.20;99.90;;;;;;5114966;27;20197;-83
2024/01/04 03:10:35;;;;;;;14.55;4.88;;;25.20;99.90;;;;;;5127580;28;20205;-86
2024/01/04 03:13:06;;;;;;;12.23;4.28;;;25.20;99.90;;;;;;5110510;28;20279;-84
2024/01/04 03:15:36;;;;;;;9.70;4.30;;;25.10;99.90;;;;;;5103564;28;20198;-84
2024/01/04 03:18:07;;;;;;;9.77;4.07;;;25.10;99.90;;;;;;5108934;28;20230;-83
2024/01/04 03:20:40;;;;;;;11.80;4.07;;;25.20;99.90;;;;;;5102822;27;20226;-83
2024/01/04 03:23:10;;;;;;;9.25;4.07;;;25.10;99.90;;;;;;5111190;27;20203;-84
2024/01/04 03:25:43;;;;;;;9.13;4.28;;;25.10;99.90;;;;;;5107003;28;20205;-83
2024/01/04 03:28:14;;;;;;;11.40;4.85;;;25.10;99.90;;;;;;5131206;28;20288;-83
2024/01/04 03:30:46;;;;;;;12.18;4.22;;;25.00;99.90;;;;;;5114827;28;20207;-84
2024/01/04 03:33:18;;;;;;;10.90;4.35;;;24.90;99.90;;;;;;5101641;28;20217;-84
2024/01/04 03:35:48;;;;;;;12.52;4.32;;;24.90;99.90;;;;;;5111473;28;20218;-84
2024/01/04 03:38:19;;;;;;;15.02;4.85;;;24.80;99.90;;;;;;5112996;28;20195;-83
2024/01/04 03:40:52;;;;;;;9.20;4.20;;;24.80;99.90;;;;;;5109749;28;20289;-87
2024/01/04 03:43:23;;;;;;;11.27;4.57;;;24.80;99.90;;;;;;5107423;28;20194;-84
2024/01/04 03:45:53;;;;;;;13.93;4.60;;;24.80;99.90;;;;;;5111870;28;20186;-84
2024/01/04 03:48:25;;;;;;;11.10;4.47;;;24.80;99.90;;;;;;5107686;28;20725;-84
2024/01/04 03:50:56;;;;;;;12.50;4.80;;;24.80;99.90;;;;;;5106780;28;20194;-84
2024/01/04 03:53:27;;;;;;;11.65;4.30;;;24.90;99.90;;;;;;5111907;28;20218;-83
2024/01/04 03:55:59;;;;;;;10.50;4.45;;;24.90;99.90;;;;;;5111612;27;20561;-84
2024/01/04 03:58:32;;;;;;;9.60;4.22;;;24.90;99.90;;;;;;5112582;28;20194;-84
2024/01/04 04:01:04;;;;;;;14.05;4.38;;;24.90;99.90;;;;;;5111033;28;20222;-84
2024/01/04 04:03:34;;;;;;;13.77;4.15;;;24.90;99.90;;;;;;5123784;27;20197;-84
2024/01/04 04:06:09;;;;;;;12.57;4.47;;;24.80;99.90;;;;;;5125356;27;20666;-85
2024/01/04 04:08:39;;;;;;;14.48;4.80;;;24.70;99.90;;;;;;5107224;28;20198;-84
2024/01/04 04:11:22;;;;;;;9.38;4.45;;;24.70;99.90;;;;;;5112310;28;20645;-84
2024/01/04 04:13:54;;;;;;;10.82;4.22;;;24.70;99.90;;;;;;5111840;28;20692;-84
2024/01/04 04:16:25;;;;;;;14.60;4.43;;;24.70;99.90;;;;;;5111169;28;20273;-84
2024/01/04 04:18:55;;;;;;;11.48;4.63;;;24.60;99.90;;;;;;5111446;28;20219;-84
2024/01/04 04:21:27;;;;;;;10.10;3.75;;;24.60;99.90;;;;;;5091572;28;20573;-84
2024/01/04 04:23:58;;;;;;;9.57;3.97;;;24.60;99.90;;;;;;5105678;28;20198;-84
2024/01/04 04:26:32;;;;;;;8.98;4.05;;;24.60;99.90;;;;;;5117429;28;20206;-83
2024/01/04 04:29:03;;;;;;;13.07;4.15;;;24.60;99.90;;;;;;5104501;28;20190;-84
2024/01/04 04:31:34;;;;;;;12.82;4.53;;;24.60;99.90;;;;;;5106919;28;20574;-84
2024/01/04 04:34:07;;;;;;;11.15;4.30;;;24.50;99.90;;;;;;5112146;28;20226;-83
2024/01/04 04:36:40;;;;;;;14.98;4.40;;;24.40;99.90;;;;;;5124352;28;20206;-83
2024/01/04 04:39:12;;;;;;;12.60;3.72;;;24.40;99.90;;;;;;5118321;28;20258;-86
2024/01/04 04:41:45;;;;;;;13.32;4.03;;;24.50;99.90;;;;;;5130938;28;20270;-84
2024/01/04 04:44:16;;;;;;;12.52;4.40;;;24.40;99.90;;;;;;5100407;28;20203;-82
2024/01/04 04:46:47;;;;;;;11.00;4.07;;;24.40;99.90;;;;;;5110449;28;20198;-81
2024/01/04 04:49:18;;;;;;;8.80;3.70;;;24.30;99.90;;;;;;5113955;28;20591;-86
2024/01/04 04:51:50;;;;;;;13.38;4.13;;;24.40;99.90;;;;;;5114938;28;20215;-84
2024/01/04 04:54:21;;;;;;;11.93;3.88;;;24.30;99.90;;;;;;5115765;28;20238;-84
2024/01/04 04:56:54;;;;;;;14.23;4.35;;;24.30;99.90;;;;;;5115555;28;20276;-84
2024/01/04 04:59:26;;;;;;;10.40;4.00;;;24.30;99.90;;;;;;5115081;27;20232;-83
2024/01/04 05:01:58;;;;;;;12.88;4.55;;;24.30;99.90;;;;;;5115474;28;20202;-84
2024/01/04 05:04:29;;;;;;;14.82;4.30;;;24.30;99.90;;;;;;5115744;28;20194;-83
2024/01/04 05:07:00;;;;;;;10.95;3.83;;;24.30;99.90;;;;;;5098042;28;20195;-84
2024/01/04 05:09:31;;;;;;;12.20;3.75;;;24.30;99.90;;;;;;5116322;28;20226;-84
2024/01/04 05:12:04;;;;;;;12.20;4.57;;;24.30;99.90;;;;;;5123118;28;20182;-84
2024/01/04 05:14:35;;;;;;;14.43;4.60;;;24.30;99.90;;;;;;5126615;27;20226;-83
2024/01/04 05:17:06;;;;;;;15.10;4.80;;;24.30;99.90;;;;;;5123478;28;20222;-83
2024/01/04 05:19:36;;;;;;;13.15;4.28;;;24.20;99.90;;;;;;5130939;28;20238;-82
2024/01/04 05:22:09;;;;;;;12.52;3.95;;;24.10;99.90;;;;;;5126479;28;20225;-82
2024/01/04 05:24:41;;;;;;;10.90;4.32;;;24.10;99.90;;;;;;5133571;28;20194;-81
2024/01/04 05:27:15;;;;;;;10.35;4.13;;;24.10;99.90;;;;;;5119538;28;20226;-83
2024/01/04 05:29:46;;;;;;;12.98;4.00;;;24.00;99.90;;;;;;5114289;28;20204;-83
2024/01/04 05:32:17;;;;;;;12.45;4.40;;;24.00;99.90;;;;;;5114790;27;20229;-84
2024/01/04 05:34:48;;;;;;;12.48;4.55;;;24.00;99.90;;;;;;5113838;28;20222;-85
2024/01/04 05:37:18;;;;;;;10.20;3.97;;;24.00;99.90;;;;;;5120436;27;20218;-83
2024/01/04 05:39:49;;;;;;;10.52;4.45;;;23.90;99.90;;;;;;5112558;28;20217;-86
2024/01/04 05:42:22;;;;;;;8.57;3.63;;;24.00;99.90;;;;;;5128077;27;20214;-85
2024/01/04 05:44:53;;;;;;;13.18;4.32;;;23.90;99.90;;;;;;5129616;28;20275;-84
2024/01/04 05:47:24;;;;;;;12.18;4.22;;;23.90;99.90;;;;;;5132713;28;20210;-84
2024/01/04 05:49:55;;;;;;;12.68;4.75;;;23.90;99.90;;;;;;5132145;27;20250;-83
2024/01/04 05:52:26;;;;;;;11.27;4.13;;;23.90;99.90;;;;;;5127150;27;20234;-85
2024/01/04 05:54:57;;;;;;;13.50;4.50;;;23.90;99.90;;;;;;5112153;27;20226;-85
2024/01/04 05:57:36;;;;;;;13.95;4.50;;;23.80;99.90;;;;;;5116198;27;20218;-85
2024/01/04 06:00:09;;;;;;;13.50;4.93;;;23.90;99.90;;;;;;5089360;28;20214;-86
2024/01/04 06:02:40;;;;;;;20.02;4.60;;;23.90;99.90;;;;;;5112812;28;20194;-85
2024/01/04 06:05:11;;;;;;;13.77;4.70;;;23.90;99.90;;;;;;5112812;27;20233;-86
2024/01/04 06:07:42;;;;;;;11.57;4.35;;;23.90;99.90;;;;;;5113465;27;20205;-85
2024/01/04 06:10:13;;;;;;;11.75;3.90;;;23.90;99.90;;;;;;5093918;28;20238;-85
2024/01/04 06:12:45;;;;;;;14.27;4.85;;;23.80;99.90;;;;;;5107194;28;20687;-84
2024/01/04 06:15:16;;;;;;;12.80;4.70;;;23.80;99.90;;;;;;5106861;28;20313;-85
2024/01/04 06:17:47;;;;;;;16.42;4.80;;;23.80;99.90;;;;;;5103188;27;20198;-85
2024/01/04 06:20:18;;;;;;;13.40;4.80;;;23.80;99.90;;;;;;5113369;28;20198;-84
2024/01/04 06:22:50;;;;;;;15.75;4.82;;;23.70;99.90;;;;;;5108710;28;20214;-84
2024/01/04 06:25:21;;;;;;;14.20;5.25;;;23.80;99.90;;;;;;5098594;28;20721;-83
2024/01/04 06:27:54;;;;;;;13.27;4.90;;;23.70;99.90;;;;;;5106312;28;20290;-81
2024/01/04 06:30:25;;;;;;;13.63;4.60;;;23.80;99.90;;;;;;5095996;27;20300;-82
2024/01/04 06:32:56;;;;;;;12.38;4.63;;;23.70;99.90;;;;;;5099806;28;20301;-83
2024/01/04 06:35:27;;;;;;;13.38;4.75;;;23.80;99.90;;;;;;5103310;28;20762;-82
2024/01/04 06:37:57;;;;;;;15.45;5.30;;;23.80;99.90;;;;;;5109164;28;20242;-84
2024/01/04 06:40:28;;;;;;;14.40;4.70;;;23.80;99.90;;;;;;5111800;27;20628;-82
2024/01/04 06:43:03;;;;;;;13.48;4.57;;;23.80;99.90;;;;;;5101189;28;20213;-83
2024/01/04 06:45:33;;;;;;;13.98;4.68;;;23.80;99.90;;;;;;5114108;27;20204;-83
2024/01/04 06:48:04;;;;;;;9.85;3.85;;;23.80;99.90;;;;;;5111288;28;20285;-81
2024/01/04 06:50:35;;;;;;;11.68;4.50;;;23.80;99.90;;;;;;5109250;27;20194;-82
2024/01/04 06:53:06;;;;;;;14.48;5.35;;;23.90;99.90;;;;;;5105130;27;20210;-82
2024/01/04 06:55:37;;;;;;;13.40;4.57;;;23.90;99.90;;;;;;5111103;28;20226;-82
2024/01/04 06:58:10;;;;;;;13.25;4.40;;;23.90;99.90;;;;;;5114923;28;20274;-84
2024/01/04 07:00:41;;;;;;;11.45;4.25;;;23.90;99.90;;;;;;5122084;27;20285;-83
2024/01/04 07:03:12;;;;;;;17.25;5.68;;;23.90;99.90;;;;;;5101586;28;20194;-85
2024/01/04 07:05:43;;;;;;;14.63;6.40;;;24.00;99.90;;;;;;5108791;28;20226;-81
2024/01/04 07:08:13;;;;;;;11.85;4.80;;;24.10;99.90;;;;;;5097059;28;20191;-83
2024/01/04 07:10:46;;;;;;;15.00;4.82;;;24.00;99.90;;;;;;5106853;28;20269;-84
2024/01/04 07:13:19;;;;;;;11.18;4.47;;;24.00;99.90;;;;;;5113102;28;20199;-83
2024/01/04 07:15:52;;;;;;;12.15;4.25;;;24.00;99.90;;;;;;5111673;28;20222;-86
2024/01/04 07:18:26;;;;;;;10.55;4.40;;;24.00;99.90;;;;;;5137868;22;20237;-83
2024/01/04 07:20:57;;;;;;;13.93;4.50;;;24.00;99.90;;;;;;5072083;28;20559;-83
2024/01/04 07:23:27;;;;;;;16.65;5.13;;;24.00;99.90;;;;;;5092538;28;20216;-82
2024/01/04 07:26:05;;;;;;;13.27;4.95;;;24.00;99.90;;;;;;5087920;28;20788;-82
2024/01/04 07:28:42;;;;;;;15.48;4.70;;;23.90;99.90;;;;;;5126819;22;20310;-87
2024/01/04 07:31:13;;;;;;;13.93;5.00;;;23.90;99.90;;;;;;5090883;27;20219;-88
2024/01/04 07:33:44;;;;;;;13.25;5.00;;;23.90;99.90;;;;;;5130348;27;20296;-84
2024/01/04 07:36:17;;;;;;;10.02;3.97;;;23.90;99.90;;;;;;5132038;27;20214;-84
2024/01/04 07:38:52;;;;;;;10.65;4.90;;;23.90;99.90;;;;;;5135490;27;20238;-84
2024/01/04 07:41:23;;;;;;;12.07;4.35;;;24.00;99.90;;;;;;5138993;27;20239;-83
2024/01/04 07:43:59;;;;;;;13.27;4.35;;;24.00;99.90;;;;;;5135398;27;20193;-84
2024/01/04 07:46:30;;;;;;;14.23;3.95;;;24.00;99.90;;;;;;5135354;27;20213;-84
2024/01/04 07:49:03;;;;;;;13.07;4.25;;;24.00;99.90;;;;;;5133381;27;20267;-85
2024/01/04 07:51:34;;;;;;;14.77;4.35;;;24.00;99.90;;;;;;5132587;27;20210;-84
2024/01/04 07:54:05;;;;;;;11.60;4.13;;;24.00;99.90;;;;;;5135251;27;20587;-84
2024/01/04 07:56:36;;;;;;;13.43;4.55;;;24.00;99.90;;;;;;5147513;27;20230;-84
2024/01/04 07:59:10;;;;;;;18.80;6.50;;;24.00;99.90;;;;;;5135953;27;20209;-84
2024/01/04 08:01:41;;;;;;;17.40;5.25;;;24.00;99.90;;;;;;5139520;27;20264;-84
2024/01/04 08:04:12;;;;;;;13.93;5.55;;;24.00;99.90;;;;;;5135425;27;20590;-82
2024/01/04 08:06:43;;;;;;;12.43;4.82;;;23.90;99.90;;;;;;5135143;27;20205;-84
2024/01/04 08:09:13;;;;;;;15.90;6.65;;;24.00;99.90;;;;;;5132360;27;20220;-82
2024/01/04 08:11:44;;;;;;;16.80;5.18;;;24.00;99.90;;;;;;5138793;27;20636;-83
2024/01/04 08:14:17;;;;;;;16.88;5.53;;;24.10;99.90;;;;;;5121014;27;20228;-83
2024/01/04 08:16:48;;;;;;;12.98;4.50;;;24.00;99.90;;;;;;5131793;27;20213;-83
2024/01/04 08:19:19;;;;;;;12.30;4.07;;;24.00;99.90;;;;;;5120713;27;20277;-85
2024/01/04 08:21:50;;;;;;;13.23;4.80;;;24.00;99.90;;;;;;5121861;27;20220;-84
2024/01/04 08:24:21;;;;;;;10.85;3.90;;;24.00;99.90;;;;;;5144734;27;20227;-83
2024/01/04 08:26:52;;;;;;;11.55;3.78;;;24.00;99.90;;;;;;5133479;27;20193;-83
2024/01/04 08:29:28;;;;;;;11.35;3.92;;;24.10;99.90;;;;;;5157968;27;20309;-86
2024/01/04 08:31:58;;;;;;;11.63;3.80;;;24.10;99.90;;;;;;5138948;27;20197;-84
2024/01/04 08:34:30;;;;;;;14.27;4.40;;;24.10;99.90;;;;;;5137423;27;20575;-84
2024/01/04 08:37:02;;;;;;;14.07;4.63;;;24.10;99.90;;;;;;5125931;27;20204;-81
2024/01/04 08:39:35;;;;;;;10.13;3.63;;;24.00;99.90;;;;;;5122326;27;20324;-82
2024/01/04 08:42:07;;;;;;;9.70;3.92;;;24.00;99.90;;;;;;5126206;27;20593;-82
2024/01/04 08:44:41;;;;;;;9.38;3.65;;;24.00;99.90;;;;;;5129910;27;20193;-81
2024/01/04 08:47:11;;;;;;;12.93;5.40;;;24.00;99.90;;;;;;5131417;27;20190;-81
2024/01/04 08:49:42;;;;;;;10.02;3.90;;;24.10;99.90;;;;;;5128508;27;20673;-82
2024/01/04 08:52:13;;;;;;;12.32;4.07;;;24.10;99.90;;;;;;5142577;27;20281;-81
2024/01/04 08:54:45;;;;;;;13.68;3.42;;;24.00;99.90;;;;;;5146695;27;20289;-82
2024/01/04 08:57:17;;;;;;;10.23;3.20;;;24.10;99.90;;;;;;5141326;27;20220;-80
2024/01/04 08:59:55;;;;;;;11.50;3.35;;;24.00;99.90;;;;;;5138295;27;20198;-83
2024/01/04 09:02:26;;;;;;;13.48;3.70;;;24.00;99.90;;;;;;5142547;27;20194;-81
2024/01/04 09:04:57;;;;;;;11.35;3.70;;;24.00;99.90;;;;;;5139135;27;20194;-82
2024/01/04 09:07:31;;;;;;;10.65;3.83;;;24.10;99.90;;;;;;5141063;27;20645;-81
2024/01/04 09:10:01;;;;;;;8.95;3.08;;;24.10;99.90;;;;;;5140896;27;20276;-82
2024/01/04 09:12:35;;;;;;;14.93;4.07;;;24.10;99.90;;;;;;5136793;27;20197;-80
2024/01/04 09:15:08;;;;;;;12.13;4.55;;;24.10;99.90;;;;;;5138336;27;20297;-79
2024/01/04 09:17:39;;;;;;;11.82;3.67;;;24.00;99.90;;;;;;5140478;27;20217;-81
2024/01/04 09:20:10;;;;;;;11.45;3.70;;;24.00;99.90;;;;;;5144897;27;20204;-81
2024/01/04 09:22:47;;;;;;;10.57;3.22;;;24.00;99.90;;;;;;5145530;27;20196;-80
2024/01/04 09:25:24;;;;;;;8.10;2.35;;;23.90;99.90;;;;;;5143882;27;20190;-82
2024/01/04 09:28:02;;;;;;;8.93;2.40;;;23.90;99.90;;;;;;5148255;27;20192;-83
2024/01/04 09:30:50;;;;;;;7.90;2.28;;;23.90;99.90;;;;;;5108204;28;20260;-82
2024/01/04 09:33:24;;;;;;;11.68;2.63;;;23.80;99.90;;;;;;5145071;27;20202;-81
2024/01/04 09:35:58;;;;;;;8.13;2.40;;;23.80;99.90;;;;;;5150511;27;20263;-80
2024/01/04 09:38:37;;;;;;;7.60;2.30;;;23.80;99.90;;;;;;5144747;27;20220;-80
2024/01/04 09:41:19;;;;;;;6.43;2.00;;;23.80;99.90;;;;;;5141169;27;20197;-80
2024/01/04 09:44:04;;;;;;;9.45;1.92;;;23.70;99.90;;;;;;5128834;27;20191;-80
2024/01/04 09:46:43;;;;;;;6.75;2.00;;;23.70;99.90;;;;;;5139266;27;20189;-79
2024/01/04 09:49:18;;;;;;;4.88;1.50;;;23.70;99.90;;;;;;5143506;27;20222;-81
2024/01/04 09:51:49;;;;;;;8.85;1.80;;;23.60;99.90;;;;;;5131898;27;20186;-80
2024/01/04 09:54:34;;;;;;;7.38;1.45;;;23.70;99.90;;;;;;5136594;27;20202;-80
2024/01/04 09:57:19;;;;;;;8.77;1.70;;;23.70;99.90;;;;;;5144645;27;20208;-82
2024/01/04 09:59:59;;;;;;;7.35;1.65;;;23.70;99.90;;;;;;5115482;28;20570;-80
2024/01/04 10:02:42;;;;;;;7.43;1.50;;;23.70;99.90;;;;;;5143816;27;20276;-79
2024/01/04 10:05:19;;;;;;;6.75;1.55;;;23.70;99.90;;;;;;5143715;27;20679;-80
2024/01/04 10:07:59;;;;;;;6.00;1.33;;;23.70;99.90;;;;;;5124845;27;20186;-80
2024/01/04 10:10:36;;;;;;;8.90;1.63;;;23.70;99.90;;;;;;5139595;27;20194;-79
2024/01/04 10:13:13;;;;;;;6.40;1.33;;;23.70;99.90;;;;;;5120426;28;20732;-79
2024/01/04 10:15:51;;;;;;;8.13;1.60;;;23.70;99.90;;;;;;5140940;27;20252;-81
2024/01/04 10:18:36;;;;;;;9.13;1.48;;;23.60;99.90;;;;;;5134018;27;20185;-81
2024/01/04 10:21:17;;;;;;;8.48;1.70;;;23.70;99.90;;;;;;5162998;27;20268;-80
2024/01/04 10:24:13;;;;;;;9.15;1.95;;;23.70;99.90;;;;;;5138056;27;20222;-78
2024/01/04 10:27:11;;;;;;;7.63;1.58;;;23.70;99.90;;;;;;5145745;27;20192;-76
2024/01/04 10:29:45;;;;;;;7.22;1.50;;;23.70;99.90;;;;;;5137732;27;20205;-79
2024/01/04 10:32:18;;;;;;;7.20;1.65;;;23.70;99.90;;;;;;5139813;27;20709;-75
2024/01/04 10:34:53;;;;;;;7.55;1.63;;;23.70;99.90;;;;;;5124829;27;20214;-79
2024/01/04 10:37:33;;;;;;;5.63;1.55;;;23.60;99.90;;;;;;5147599;27;20244;-81
2024/01/04 10:40:23;;;;;;;8.23;1.70;;;23.70;99.90;;;;;;5148495;27;20194;-80
2024/01/04 10:43:02;;;;;;;6.80;1.85;;;23.70;99.90;;;;;;5140035;27;20212;-80
2024/01/04 10:45:38;;;;;;;7.82;1.60;;;23.70;99.90;;;;;;5128597;27;20348;-81
2024/01/04 10:48:17;;;;;;;6.90;1.73;;;23.70;99.90;;;;;;5131471;27;20219;-80
2024/01/04 10:51:06;;;;;;;7.55;1.67;;;23.60;99.90;;;;;;5137993;27;20726;-80
2024/01/04 10:53:47;;;;;;;7.10;1.77;;;23.60;99.90;;;;;;5144764;27;20208;-80
2024/01/04 10:56:22;;;;;;;7.07;1.52;;;23.60;99.90;;;;;;5133886;27;20245;-78
2024/01/04 10:58:56;;;;;;;6.80;1.80;;;23.60;99.90;;;;;;5127290;27;20186;-77
2024/01/04 11:01:32;;;;;;;6.35;1.70;;;23.70;99.90;;;;;;5152313;27;20237;-77
2024/01/04 11:04:08;;;;;;;5.30;1.58;;;23.60;99.90;;;;;;5125072;28;20219;-77
2024/01/04 11:06:46;;;;;;;7.95;1.98;;;23.60;99.90;;;;;;5138533;27;20678;-79
2024/01/04 11:09:20;;;;;;;7.30;1.88;;;23.60;99.90;;;;;;5139215;27;20190;-79
2024/01/04 11:11:54;;;;;;;5.72;1.50;;;23.60;99.90;;;;;;5125542;27;20201;-77
2024/01/04 11:14:27;;;;;;;6.53;1.25;;;23.60;99.90;;;;;;5145827;27;20695;-78
2024/01/04 11:17:18;;;;;;;5.60;1.63;;;23.60;99.90;;;;;;5145596;27;20239;-77
2024/01/04 11:20:05;;;;;;;9.20;1.95;;;23.60;99.90;;;;;;5141916;27;20289;-75
2024/01/04 11:22:57;;;;;;;8.55;1.60;;;23.60;99.90;;;;;;5135451;27;20657;-76
2024/01/04 11:25:40;;;;;;;8.65;1.63;;;23.60;99.90;;;;;;5145921;27;20201;-77
2024/01/04 11:28:12;;;;;;;9.15;1.50;;;23.60;99.90;;;;;;5144260;27;20220;-79
2024/01/04 11:30:43;;;;;;;6.10;1.60;;;23.60;99.90;;;;;;5143775;27;20321;-78
2024/01/04 11:33:19;;;;;;;6.65;1.40;;;23.60;99.90;;;;;;5114971;28;20201;-78
2024/01/04 11:35:51;;;;;;;7.90;1.50;;;23.60;99.90;;;;;;5139315;27;20304;-79
2024/01/04 11:38:33;;;;;;;7.80;1.55;;;23.60;99.90;;;;;;5138104;27;20249;-75
2024/01/04 11:41:04;;;;;;;7.63;1.52;;;23.60;99.90;;;;;;5143782;27;20222;-78
2024/01/04 11:43:43;;;;;;;8.15;1.80;;;23.60;99.90;;;;;;5153215;27;20277;-76
2024/01/04 11:46:26;;;;;;;6.95;1.48;;;23.60;99.90;;;;;;5132295;27;20247;-80
2024/01/04 11:48:58;;;;;;;8.15;1.60;;;23.50;99.90;;;;;;5132107;27;20626;-76
2024/01/04 11:51:36;;;;;;;6.18;1.50;;;23.50;99.90;;;;;;5117611;28;20623;-77
2024/01/04 11:54:10;;;;;;;11.95;1.70;;;23.40;99.90;;;;;;5133054;27;20721;-77
2024/01/04 11:56:41;;;;;;;8.45;1.92;;;23.30;99.90;;;;;;5139185;27;20244;-77
2024/01/04 11:59:13;;;;;;;10.90;2.08;;;23.30;99.90;;;;;;5137606;27;20219;-79
2024/01/04 12:01:45;;;;;;;8.13;1.63;;;23.20;99.90;;;;;;5136105;27;20277;-76
2024/01/04 12:04:18;;;;;;;8.70;1.65;;;23.30;99.90;;;;;;5126064;27;20197;-78
2024/01/04 12:06:50;;;;;;;6.50;1.55;;;23.30;99.90;;;;;;5130440;27;20201;-76
2024/01/04 12:09:23;;;;;;;7.80;1.90;;;23.30;99.90;;;;;;5140751;27;20202;-77
2024/01/04 12:11:58;;;;;;;9.32;1.90;;;23.30;99.90;;;;;;5136899;27;20276;-78
2024/01/04 12:14:30;;;;;;;10.40;2.30;;;23.20;99.90;;;;;;5138131;27;20569;-80
2024/01/04 12:17:10;;;;;;;8.82;1.73;;;23.20;99.90;;;;;;5142823;27;20202;-77
2024/01/04 12:19:43;;;;;;;9.35;1.60;;;23.20;99.90;;;;;;5157786;27;20213;-83
2024/01/04 12:22:15;;;;;;;8.35;2.10;;;23.20;99.90;;;;;;5156386;27;20247;-79
2024/01/04 12:24:51;;;;;;;13.30;2.42;;;23.30;99.90;;;;;;5156870;27;20217;-79
2024/01/04 12:27:23;;;;;;;8.45;1.90;;;23.20;99.90;;;;;;5143541;27;20217;-78
2024/01/04 12:29:58;;;;;;;6.50;1.90;;;23.20;99.90;;;;;;5120536;27;20230;-79
2024/01/04 12:32:32;;;;;;;8.95;1.77;;;23.30;99.90;;;;;;5141200;27;20209;-78
2024/01/04 12:35:10;;;;;;;9.35;1.85;;;23.30;99.90;;;;;;5103972;28;20222;-79
2024/01/04 12:37:42;;;;;;;10.10;1.85;;;23.20;99.90;;;;;;5149823;27;20221;-80
2024/01/04 12:40:19;;;;;;;10.82;2.10;;;23.30;99.90;;;;;;5094776;22;20234;-77
2024/01/04 12:43:13;;;;;;;6.35;1.70;;;23.30;99.90;;;;;;5067221;28;20220;-77
2024/01/04 12:45:50;;;;;;;14.05;2.08;;;23.30;99.90;;;;;;5073949;28;20202;-81
2024/01/04 12:48:23;;;;;;;7.95;1.75;;;23.30;99.90;;;;;;5084593;28;20296;-79
2024/01/04 12:50:57;;;;;;;8.65;2.05;;;23.30;99.90;;;;;;5086482;28;20684;-79
2024/01/04 12:53:28;;;;;;;6.47;1.67;;;23.30;99.90;;;;;;5057760;28;20211;-81
2024/01/04 12:56:00;;;;;;;7.65;1.52;;;23.30;99.90;;;;;;5070408;28;20230;-79
2024/01/04 12:58:31;;;;;;;9.60;1.90;;;23.20;99.90;;;;;;5008657;28;20213;-80
2024/01/04 13:01:02;;;;;;;8.90;1.83;;;23.20;99.90;;;;;;5058562;28;20196;-79
2024/01/04 13:03:33;;;;;;;8.07;1.80;;;23.20;99.90;;;;;;5070216;28;20202;-81
2024/01/04 13:06:04;;;;;;;6.25;1.63;;;23.10;99.90;;;;;;5069157;28;20212;-80
2024/01/04 13:08:35;;;;;;;8.65;1.63;;;23.10;99.90;;;;;;5041797;28;20219;-80
2024/01/04 13:11:08;;;;;;;6.55;1.60;;;23.20;99.90;;;;;;5071963;28;20250;-80